Time,TemperatureF,DewpointF,PressureIn,WindDirection,WindDirectionDegrees,WindSpeedMPH,WindSpeedGustMPH,Humidity,HourlyPrecipIn,Conditions,Clouds,dailyrainin,SoftwareType,DateUTC
2013-07-22 00:02:00,65.8,65.8,0.00,West,276,0.0,0.0,100,0.00,,,-99.99,VWS V12.07,2013-07-22 04:02:00,
2013-07-22 00:12:00,65.8,65.8,0.00,West,276,0.0,0.0,100,0.00,,,-99.99,VWS V12.07,2013-07-22 04:12:00,
2013-07-22 00:15:00,65.8,65.8,0.00,West,276,0.0,0.0,100,0.00,,,-99.99,VWS V12.07,2013-07-22 04:15:00,
2013-07-22 00:22:00,65.8,65.8,0.00,West,276,0.0,0.0,100,0.00,,,-99.99,VWS V12.07,2013-07-22 04:22:00,
2013-07-22 00:25:00,65.8,65.8,0.00,West,276,0.0,0.0,100,0.00,,,-99.99,VWS V12.07,2013-07-22 04:25:00,
2013-07-22 00:32:00,65.8,65.8,0.00,West,276,0.0,0.0,100,0.00,,,-99.99,VWS V12.07,2013-07-22 04:32:00,
2013-07-22 00:42:00,65.7,65.7,0.00,West,276,0.0,0.0,100,0.00,,,-99.99,VWS V12.07,2013-07-22 04:42:00,
2013-07-22 00:52:00,65.7,65.7,0.00,West,276,0.0,0.0,100,0.00,,,-99.99,VWS V12.07,2013-07-22 04:52:00,
2013-07-22 01:02:00,65.5,65.5,0.00,West,276,0.0,0.0,100,0.00,,,-99.99,VWS V12.07,2013-07-22 05:02:00,
2013-07-22 01:12:00,65.4,65.4,0.00,West,276,0.0,0.0,100,0.00,,,-99.99,VWS V12.07,2013-07-22 05:12:00,
2013-07-22 01:22:00,65.3,65.3,0.00,West,276,0.0,0.0,100,0.00,,,-99.99,VWS V12.07,2013-07-22 05:22:00,
2013-07-22 01:32:00,65.3,65.3,0.00,West,276,0.0,0.0,100,0.00,,,-99.99,VWS V12.07,2013-07-22 05:32:00,
2013-07-22 01:42:00,65.2,65.2,0.00,West,276,0.0,0.0,100,0.00,,,-99.99,VWS V12.07,2013-07-22 05:42:00,
2013-07-22 01:52:00,65.1,65.1,0.00,West,276,0.0,0.0,100,0.00,,,-99.99,VWS V12.07,2013-07-22 05:52:00,
2013-07-22 02:02:00,65.1,65.1,0.00,West,276,0.0,0.0,100,0.00,,,-99.99,VWS V12.07,2013-07-22 06:02:00,
2013-07-22 02:12:00,65.1,65.1,0.00,West,276,0.0,0.0,100,0.00,,,-99.99,VWS V12.07,2013-07-22 06:12:00,
2013-07-22 02:22:00,65.0,65.0,0.00,West,276,0.0,0.0,100,0.00,,,-99.99,VWS V12.07,2013-07-22 06:22:00,
2013-07-22 02:32:00,65.0,65.0,0.00,West,276,0.0,0.0,100,0.00,,,-99.99,VWS V12.07,2013-07-22 06:32:00,
2013-07-22 02:42:00,64.9,64.9,0.00,West,276,0.0,0.0,100,0.00,,,-99.99,VWS V12.07,2013-07-22 06:42:00,
2013-07-22 02:52:00,64.9,64.9,0.00,West,276,0.0,0.0,100,0.00,,,-99.99,VWS V12.07,2013-07-22 06:52:00,
2013-07-22 03:02:00,64.8,64.8,0.00,West,276,0.0,0.0,100,0.00,,,-99.99,VWS V12.07,2013-07-22 07:02:00,
2013-07-22 03:12:00,64.8,64.8,0.00,West,276,0.0,0.0,100,0.00,,,-99.99,VWS V12.07,2013-07-22 07:12:00,
2013-07-22 03:22:00,64.8,64.8,0.00,West,276,0.0,0.0,100,0.00,,,-99.99,VWS V12.07,2013-07-22 07:22:00,
2013-07-22 03:32:00,64.7,64.7,0.00,West,276,0.0,0.0,100,0.00,,,-99.99,VWS V12.07,2013-07-22 07:32:00,
2013-07-22 03:42:00,64.7,64.7,0.00,West,276,0.0,0.0,100,0.00,,,-99.99,VWS V12.07,2013-07-22 07:42:00,
2013-07-22 03:52:00,64.6,64.6,0.00,West,276,0.0,0.0,100,0.00,,,-99.99,VWS V12.07,2013-07-22 07:52:00,
2013-07-22 04:02:00,64.7,64.7,0.00,West,276,0.0,0.0,100,0.00,,,-99.99,VWS V12.07,2013-07-22 08:02:00,
2013-07-22 04:12:00,64.7,64.7,0.00,West,276,0.0,0.0,100,0.00,,,-99.99,VWS V12.07,2013-07-22 08:12:00,
2013-07-22 04:22:00,64.6,64.6,0.00,West,276,0.0,0.0,100,0.00,,,-99.99,VWS V12.07,2013-07-22 08:22:00,
2013-07-22 04:32:00,64.6,64.6,0.00,West,276,0.0,0.0,100,0.00,,,-99.99,VWS V12.07,2013-07-22 08:32:00,
2013-07-22 04:42:00,64.4,64.4,0.00,West,276,0.0,0.0,100,0.00,,,-99.99,VWS V12.07,2013-07-22 08:42:00,
2013-07-22 04:52:00,64.4,64.4,0.00,West,276,0.0,0.0,100,0.00,,,-99.99,VWS V12.07,2013-07-22 08:52:00,
2013-07-22 05:02:00,64.3,64.3,0.00,West,276,0.0,0.0,100,0.00,,,-99.99,VWS V12.07,2013-07-22 09:02:00,
2013-07-22 05:12:00,64.3,64.3,0.00,West,276,0.0,0.0,100,0.00,,,-99.99,VWS V12.07,2013-07-22 09:12:00,
2013-07-22 05:22:00,64.2,64.2,0.00,West,276,0.0,0.0,100,0.00,,,-99.99,VWS V12.07,2013-07-22 09:22:00,
2013-07-22 05:32:00,64.1,64.1,0.00,West,276,0.0,0.0,100,0.00,,,-99.99,VWS V12.07,2013-07-22 09:32:00,
2013-07-22 05:42:00,64.1,64.1,0.00,WNW,290,0.0,3.5,100,0.00,,,-99.99,VWS V12.07,2013-07-22 09:42:00,
2013-07-22 05:52:00,64.2,64.2,0.00,WNW,290,0.0,3.5,100,0.00,,,-99.99,VWS V12.07,2013-07-22 09:52:00,
2013-07-22 06:02:00,64.2,64.2,0.00,WNW,290,0.0,0.0,100,0.00,,,-99.99,VWS V12.07,2013-07-22 10:02:00,
2013-07-22 06:12:00,64.1,64.1,0.00,WNW,290,0.0,0.0,100,0.00,,,-99.99,VWS V12.07,2013-07-22 10:12:00,
2013-07-22 06:22:00,64.0,64.0,0.00,WNW,290,0.0,0.0,100,0.00,,,-99.99,VWS V12.07,2013-07-22 10:22:00,
2013-07-22 06:32:00,64.0,64.0,0.00,WNW,290,0.0,0.0,100,0.00,,,-99.99,VWS V12.07,2013-07-22 10:32:00,
2013-07-22 06:42:00,64.0,64.0,0.00,WNW,290,0.0,0.0,100,0.00,,,-99.99,VWS V12.07,2013-07-22 10:42:00,
2013-07-22 06:52:00,64.0,64.0,0.00,WNW,290,0.0,0.0,100,0.00,,,-99.99,VWS V12.07,2013-07-22 10:52:00,
2013-07-22 07:02:00,64.2,64.2,0.00,WNW,290,0.0,0.0,100,0.00,,,-99.99,VWS V12.07,2013-07-22 11:02:00,
2013-07-22 07:12:00,64.6,64.6,0.00,WNW,290,0.0,0.0,100,0.00,,,-99.99,VWS V12.07,2013-07-22 11:12:00,
2013-07-22 07:22:00,64.6,64.6,0.00,WNW,290,0.0,0.0,100,0.00,,,-99.99,VWS V12.07,2013-07-22 11:22:00,
2013-07-22 07:32:00,64.6,64.6,0.00,WNW,290,0.0,0.0,100,0.00,,,-99.99,VWS V12.07,2013-07-22 11:32:00,
2013-07-22 07:42:00,64.8,64.8,0.00,WNW,290,0.0,0.0,100,0.00,,,-99.99,VWS V12.07,2013-07-22 11:42:00,
2013-07-22 07:52:00,64.9,64.9,0.00,WNW,290,0.0,0.0,100,0.00,,,-99.99,VWS V12.07,2013-07-22 11:52:00,
2013-07-22 08:02:00,65.0,65.0,0.00,WNW,290,0.0,0.0,100,0.00,,,-99.99,VWS V12.07,2013-07-22 12:02:00,
2013-07-22 08:12:00,65.3,65.3,0.00,WNW,290,0.0,0.0,100,0.00,,,-99.99,VWS V12.07,2013-07-22 12:12:00,
2013-07-22 08:22:00,65.6,65.6,0.00,WNW,290,0.0,0.0,100,0.00,,,-99.99,VWS V12.07,2013-07-22 12:22:00,
2013-07-22 08:32:00,65.9,65.9,0.00,WNW,290,0.0,0.0,100,0.00,,,-99.99,VWS V12.07,2013-07-22 12:32:00,
2013-07-22 08:42:00,66.1,66.1,0.00,WNW,290,0.0,0.0,100,0.00,,,-99.99,VWS V12.07,2013-07-22 12:42:00,
2013-07-22 08:52:00,66.3,66.3,0.00,WNW,290,0.0,0.0,100,0.00,,,-99.99,VWS V12.07,2013-07-22 12:52:00,
2013-07-22 09:02:00,66.7,66.7,0.00,WNW,290,0.0,0.0,100,0.00,,,-99.99,VWS V12.07,2013-07-22 13:02:00,
2013-07-22 09:12:00,66.8,66.8,0.00,WNW,290,0.0,0.0,100,0.00,,,-99.99,VWS V12.07,2013-07-22 13:12:00,
2013-07-22 09:22:00,66.8,66.8,0.00,WNW,290,0.0,0.0,100,0.00,,,-99.99,VWS V12.07,2013-07-22 13:22:00,
2013-07-22 09:32:00,67.0,67.0,0.00,WNW,290,0.0,0.0,100,0.00,,,-99.99,VWS V12.07,2013-07-22 13:32:00,
2013-07-22 09:42:00,67.1,67.1,0.00,WNW,290,0.0,0.0,100,0.00,,,-99.99,VWS V12.07,2013-07-22 13:42:00,
2013-07-22 09:52:00,67.3,67.3,0.00,WNW,302,0.0,3.4,100,0.00,,,-99.99,VWS V12.07,2013-07-22 13:52:00,
2013-07-22 10:02:00,67.9,67.9,0.00,NW,307,0.0,0.0,100,0.00,,,-99.99,VWS V12.07,2013-07-22 14:02:00,
2013-07-22 10:12:00,68.3,68.3,0.00,NW,323,0.0,5.0,100,0.00,,,-99.99,VWS V12.07,2013-07-22 14:12:00,
2013-07-22 10:22:00,68.5,68.5,0.00,WNW,284,3.2,7.5,100,0.00,,,-99.99,VWS V12.07,2013-07-22 14:22:00,
2013-07-22 10:32:00,69.0,69.0,0.00,WNW,290,6.3,8.1,100,0.00,,,-99.99,VWS V12.07,2013-07-22 14:32:00,
2013-07-22 10:42:00,69.1,69.1,0.00,SW,225,3.0,6.0,100,0.00,,,-99.99,VWS V12.07,2013-07-22 14:42:00,
2013-07-22 10:52:00,69.4,69.4,0.00,SSW,195,3.4,10.7,100,0.00,,,-99.99,VWS V12.07,2013-07-22 14:52:00,
2013-07-22 11:02:00,69.9,69.9,0.00,WNW,284,6.2,8.5,100,0.00,,,-99.99,VWS V12.07,2013-07-22 15:02:00,
2013-07-22 11:12:00,70.5,70.5,0.00,WNW,283,6.2,10.7,100,0.00,,,-99.99,VWS V12.07,2013-07-22 15:12:00,
2013-07-22 11:22:00,70.5,70.5,0.00,West,274,5.4,9.3,100,0.00,,,-99.99,VWS V12.07,2013-07-22 15:22:00,
2013-07-22 11:32:00,70.4,70.4,0.00,WSW,257,0.0,9.5,100,0.00,,,-99.99,VWS V12.07,2013-07-22 15:32:00,
2013-07-22 11:42:00,71.0,70.7,0.00,WNW,294,7.1,11.4,99,0.00,,,-99.99,VWS V12.07,2013-07-22 15:42:00,
2013-07-22 11:52:00,71.2,70.7,0.00,West,278,5.8,11.6,98,0.00,,,-99.99,VWS V12.07,2013-07-22 15:52:00,
2013-07-22 12:02:00,71.5,71.0,0.00,WNW,283,4.4,4.8,98,0.00,,,-99.99,VWS V12.07,2013-07-22 16:02:00,
2013-07-22 12:12:00,71.9,70.8,0.00,West,270,0.0,9.5,96,0.00,,,-99.99,VWS V12.07,2013-07-22 16:12:00,
2013-07-22 12:26:00,72.3,70.9,0.00,West,276,5.8,8.5,95,0.00,,,-99.99,VWS V12.07,2013-07-22 16:26:00,
2013-07-22 12:32:00,72.5,71.1,0.00,WNW,291,5.5,8.5,96,0.00,,,-99.99,VWS V12.07,2013-07-22 16:32:00,
2013-07-22 12:42:00,72.9,71.6,0.00,WNW,297,0.0,7.0,96,0.00,,,-99.99,VWS V12.07,2013-07-22 16:42:00,
2013-07-22 12:52:00,73.4,71.7,0.00,West,259,3.4,11.4,94,0.00,,,-99.99,VWS V12.07,2013-07-22 16:52:00,
2013-07-22 13:02:00,73.2,71.1,0.00,West,278,0.0,9.1,93,0.00,,,-99.99,VWS V12.07,2013-07-22 17:02:00,
2013-07-22 13:12:00,73.5,71.4,0.00,NW,305,7.8,10.9,93,0.00,,,-99.99,VWS V12.07,2013-07-22 17:12:00,
2013-07-22 13:22:00,73.9,71.4,0.00,WSW,243,0.0,10.1,92,0.00,,,-99.99,VWS V12.07,2013-07-22 17:22:00,
2013-07-22 13:32:00,73.4,70.7,0.00,West,281,0.0,12.7,91,0.00,,,-99.99,VWS V12.07,2013-07-22 17:32:00,
2013-07-22 13:42:00,73.8,71.4,0.00,WNW,288,5.8,8.6,92,0.00,,,-99.99,VWS V12.07,2013-07-22 17:42:00,
2013-07-22 13:52:00,73.6,71.0,0.00,WNW,294,4.7,11.0,92,0.00,,,-99.99,VWS V12.07,2013-07-22 17:52:00,
2013-07-22 14:02:00,73.5,70.9,0.00,WNW,287,8.0,15.4,92,0.00,,,-99.99,VWS V12.07,2013-07-22 18:02:00,
2013-07-22 14:22:00,74.2,70.8,0.00,NW,323,9.9,13.2,89,0.00,,,-99.99,VWS V12.07,2013-07-22 18:22:00,
2013-07-22 14:32:00,74.6,71.0,0.00,WSW,238,3.4,15.1,89,0.00,,,-99.99,VWS V12.07,2013-07-22 18:32:00,
2013-07-22 14:50:00,75.5,71.8,0.00,WSW,243,6.5,12.7,88,0.00,,,-99.99,VWS V12.07,2013-07-22 18:50:00,
2013-07-22 15:12:00,75.8,71.0,0.00,WSW,249,0.0,17.3,85,0.00,,,-99.99,VWS V12.07,2013-07-22 19:12:00,
2013-07-22 15:22:00,75.9,70.4,0.00,SSW,212,0.0,12.8,83,0.00,,,-99.99,VWS V12.07,2013-07-22 19:22:00,
2013-07-22 15:32:00,74.8,70.1,0.00,West,260,0.0,12.8,85,0.00,,,-99.99,VWS V12.07,2013-07-22 19:32:00,
2013-07-22 15:42:00,73.9,70.4,0.00,SW,233,4.9,14.7,89,0.00,,,-99.99,VWS V12.07,2013-07-22 19:42:00,
2013-07-22 15:55:00,73.8,71.1,0.00,West,259,2.0,14.7,91,0.00,,,-99.99,VWS V12.07,2013-07-22 19:55:00,
2013-07-22 16:02:00,74.0,71.4,0.00,West,270,7.1,11.9,92,0.00,,,-99.99,VWS V12.07,2013-07-22 20:02:00,
2013-07-22 16:12:00,75.2,72.2,0.00,West,271,12.2,19.1,90,0.00,,,-99.99,VWS V12.07,2013-07-22 20:12:00,
2013-07-22 16:22:00,75.1,71.9,0.00,WSW,255,0.0,9.0,90,0.00,,,-99.99,VWS V12.07,2013-07-22 20:22:00,
2013-07-22 16:25:00,75.2,71.9,0.00,SW,232,2.6,9.5,90,0.00,,,-99.99,VWS V12.07,2013-07-22 20:25:00,
2013-07-22 16:32:00,75.4,72.1,0.00,West,281,5.0,14.1,89,0.00,,,-99.99,VWS V12.07,2013-07-22 20:32:00,
2013-07-22 16:42:00,75.5,72.1,0.00,WNW,288,7.0,12.0,89,0.00,,,-99.99,VWS V12.07,2013-07-22 20:42:00,
2013-07-22 16:45:00,75.6,71.7,0.00,West,270,5.1,12.6,88,0.00,,,-99.99,VWS V12.07,2013-07-22 20:45:00,
2013-07-22 16:52:00,75.6,71.7,0.00,NW,311,7.9,12.6,88,0.00,,,-99.99,VWS V12.07,2013-07-22 20:52:00,
2013-07-22 17:02:00,75.7,71.5,0.00,WNW,285,6.7,17.1,87,0.00,,,-99.99,VWS V12.07,2013-07-22 21:02:00,
2013-07-22 17:12:00,75.7,71.3,0.00,WNW,297,7.0,17.3,86,0.00,,,-99.99,VWS V12.07,2013-07-22 21:12:00,
2013-07-22 17:15:00,75.8,71.0,0.00,WNW,285,5.2,17.3,85,0.00,,,-99.99,VWS V12.07,2013-07-22 21:15:00,
2013-07-22 17:22:00,75.7,71.0,0.00,West,262,0.0,12.2,85,0.00,,,-99.99,VWS V12.07,2013-07-22 21:22:00,
2013-07-22 17:32:00,75.6,70.6,0.00,NW,325,11.1,16.0,84,0.00,,,-99.99,VWS V12.07,2013-07-22 21:32:00,
2013-07-22 17:42:00,75.7,70.6,0.00,NW,312,6.2,16.2,84,0.00,,,-99.99,VWS V12.07,2013-07-22 21:42:00,
2013-07-22 17:52:00,76.1,71.4,0.00,West,271,5.9,16.2,85,0.00,,,-99.99,VWS V12.07,2013-07-22 21:52:00,
2013-07-22 18:02:00,76.3,71.4,0.00,WSW,243,4.3,10.5,85,0.00,,,-99.99,VWS V12.07,2013-07-22 22:02:00,
2013-07-22 18:12:00,75.0,70.5,0.00,SW,229,0.0,13.0,86,0.00,,,-99.99,VWS V12.07,2013-07-22 22:12:00,
2013-07-22 18:22:00,74.7,71.3,0.00,SW,236,3.2,10.6,89,0.00,,,-99.99,VWS V12.07,2013-07-22 22:22:00,
2013-07-22 18:32:00,75.1,71.4,0.00,SSE,156,3.3,10.9,88,0.00,,,-99.99,VWS V12.07,2013-07-22 22:32:00,
2013-07-22 18:42:00,75.1,70.7,0.00,SW,225,3.2,7.3,86,0.00,,,-99.99,VWS V12.07,2013-07-22 22:42:00,
2013-07-22 18:52:00,74.1,70.4,0.00,SW,225,0.0,11.7,88,0.00,,,-99.99,VWS V12.07,2013-07-22 22:52:00,
2013-07-22 19:02:00,74.2,70.7,0.00,SW,228,0.0,5.8,89,0.00,,,-99.99,VWS V12.07,2013-07-22 23:02:00,
2013-07-22 19:12:00,73.5,70.5,0.00,SW,235,0.0,7.8,90,0.00,,,-99.99,VWS V12.07,2013-07-22 23:12:00,
2013-07-22 19:22:00,72.6,69.9,0.00,WSW,246,0.0,7.9,91,0.00,,,-99.99,VWS V12.07,2013-07-22 23:22:00,
2013-07-22 19:32:00,71.9,69.6,0.00,West,281,0.0,10.5,92,0.00,,,-99.99,VWS V12.07,2013-07-22 23:32:00,
2013-07-22 19:42:00,71.5,69.5,0.00,WNW,288,0.0,0.0,94,0.00,,,-99.99,VWS V12.07,2013-07-22 23:42:00,
2013-07-22 19:52:00,71.4,69.6,0.00,West,277,5.8,6.8,94,0.00,,,-99.99,VWS V12.07,2013-07-22 23:52:00,
2013-07-22 20:02:00,71.0,69.7,0.00,West,276,0.0,8.9,96,0.00,,,-99.99,VWS V12.07,2013-07-23 00:02:00,
2013-07-22 20:12:00,69.7,69.3,0.00,SW,236,3.3,11.1,99,0.00,,,-99.99,VWS V12.07,2013-07-23 00:12:00,
2013-07-22 20:22:00,68.8,68.8,0.00,West,276,6.1,6.1,100,0.00,,,-99.99,VWS V12.07,2013-07-23 00:22:00,
2013-07-22 20:32:00,68.4,68.4,0.00,WSW,257,2.7,8.8,100,0.00,,,-99.99,VWS V12.07,2013-07-23 00:32:00,
2013-07-22 20:42:00,68.3,68.3,0.00,WSW,248,0.0,6.1,100,0.00,,,-99.99,VWS V12.07,2013-07-23 00:42:00,
2013-07-22 20:52:00,67.4,67.4,0.00,SSW,195,4.5,14.4,100,0.00,,,-99.99,VWS V12.07,2013-07-23 00:52:00,
2013-07-22 21:02:00,67.0,67.0,0.00,SW,219,3.4,7.0,100,0.00,,,-99.99,VWS V12.07,2013-07-23 01:02:00,
2013-07-22 21:12:00,66.5,66.5,0.00,WSW,248,0.0,10.3,100,0.00,,,-99.99,VWS V12.07,2013-07-23 01:12:00,
2013-07-22 21:22:00,66.0,66.0,0.00,West,276,3.5,8.6,100,0.00,,,-99.99,VWS V12.07,2013-07-23 01:22:00,
2013-07-22 21:32:00,65.8,65.8,0.00,West,266,2.9,11.9,100,0.00,,,-99.99,VWS V12.07,2013-07-23 01:32:00,
2013-07-22 21:42:00,65.6,65.6,0.00,SW,222,0.0,8.4,100,0.00,,,-99.99,VWS V12.07,2013-07-23 01:42:00,
2013-07-22 21:52:00,65.4,65.4,0.00,WSW,253,6.0,13.4,100,0.00,,,-99.99,VWS V12.07,2013-07-23 01:52:00,
2013-07-22 22:02:00,65.3,65.3,0.00,SW,226,0.0,7.8,100,0.00,,,-99.99,VWS V12.07,2013-07-23 02:02:00,
2013-07-22 22:12:00,65.1,65.1,0.00,SSE,166,0.0,7.8,100,0.00,,,-99.99,VWS V12.07,2013-07-23 02:12:00,
2013-07-22 22:22:00,64.9,64.9,0.00,South,184,0.0,8.2,100,0.00,,,-99.99,VWS V12.07,2013-07-23 02:22:00,
2013-07-22 22:32:00,64.8,64.8,0.00,WNW,298,6.5,10.6,100,0.00,,,-99.99,VWS V12.07,2013-07-23 02:32:00,
2013-07-22 22:42:00,64.7,64.7,0.00,SW,225,4.7,9.8,100,0.00,,,-99.99,VWS V12.07,2013-07-23 02:42:00,
2013-07-22 22:52:00,64.7,64.7,0.00,SW,233,0.0,9.8,100,0.00,,,-99.99,VWS V12.07,2013-07-23 02:52:00,
2013-07-22 23:02:00,64.7,64.7,0.00,West,260,0.0,2.7,100,0.00,,,-99.99,VWS V12.07,2013-07-23 03:02:00,
2013-07-22 23:12:00,64.5,64.5,0.00,WSW,246,0.0,5.7,100,0.00,,,-99.99,VWS V12.07,2013-07-23 03:12:00,
2013-07-22 23:22:00,64.4,64.4,0.00,SSW,207,0.0,0.0,100,0.00,,,-99.99,VWS V12.07,2013-07-23 03:22:00,
2013-07-22 23:32:00,64.4,64.4,0.00,SSW,207,0.0,0.0,100,0.00,,,-99.99,VWS V12.07,2013-07-23 03:32:00,
2013-07-22 23:42:00,64.5,64.5,0.00,SSW,207,0.0,0.0,100,0.00,,,-99.99,VWS V12.07,2013-07-23 03:42:00,
2013-07-22 23:52:00,64.7,64.7,0.00,SSW,207,0.0,0.0,100,0.00,,,-99.99,VWS V12.07,2013-07-23 03:52:00,